TimeAKST,TemperatureF,Dew PointF,Humidity,Sea Level PressureIn,VisibilityMPH,Wind Direction,Wind SpeedMPH,Gust SpeedMPH,PrecipitationIn,Events,Conditions,WindDirDegrees,DateUTC
12:16 AM,37.4,33.8,87,29.90,10.0,SSE,3.5,-,N/A,,Overcast,150,2013-02-16 09:16:00
12:36 AM,37.4,33.8,87,29.91,10.0,ENE,3.5,-,N/A,,Overcast,70,2013-02-16 09:36:00
12:56 AM,37.4,33.8,87,29.91,10.0,East,5.8,-,N/A,,Mostly Cloudy,80,2013-02-16 09:56:00
1:16 AM,37.4,32.0,81,29.91,10.0,ENE,3.5,-,N/A,,Mostly Cloudy,70,2013-02-16 10:16:00
1:36 AM,35.6,32.0,87,29.91,10.0,SSE,4.6,-,N/A,,Overcast,160,2013-02-16 10:36:00
1:56 AM,35.6,32.0,87,29.92,10.0,SSE,6.9,-,N/A,,Scattered Clouds,160,2013-02-16 10:56:00
2:16 AM,35.6,30.2,81,29.92,10.0,Calm,Calm,-,N/A,,Mostly Cloudy,0,2013-02-16 11:16:00
2:36 AM,35.6,32.0,87,29.93,10.0,Calm,Calm,-,N/A,,Overcast,0,2013-02-16 11:36:00
2:56 AM,35.6,30.2,81,29.94,10.0,Calm,Calm,-,N/A,,Overcast,0,2013-02-16 11:56:00
3:16 AM,35.6,30.2,81,29.94,9.0,Calm,Calm,-,N/A,,Overcast,0,2013-02-16 12:16:00
3:36 AM,35.6,33.8,93,29.94,9.0,ESE,4.6,-,N/A,,Overcast,120,2013-02-16 12:36:00
3:56 AM,37.4,33.8,87,29.95,10.0,Calm,Calm,-,N/A,,Overcast,0,2013-02-16 12:56:00
4:16 AM,35.6,32.0,87,29.95,10.0,Calm,Calm,-,N/A,,Overcast,0,2013-02-16 13:16:00
4:36 AM,37.4,33.8,87,29.95,10.0,ESE,4.6,-,N/A,,Overcast,110,2013-02-16 13:36:00
4:56 AM,37.4,33.8,87,29.94,10.0,SE,4.6,-,N/A,,Overcast,130,2013-02-16 13:56:00
5:16 AM,37.4,33.8,87,29.94,10.0,ESE,9.2,-,N/A,,Overcast,120,2013-02-16 14:16:00
5:36 AM,37.4,33.8,87,29.95,10.0,SE,4.6,-,N/A,,Overcast,140,2013-02-16 14:36:00
5:56 AM,37.4,33.8,87,29.95,10.0,SSE,3.5,-,N/A,,Overcast,150,2013-02-16 14:56:00
6:16 AM,37.4,33.8,87,29.96,10.0,SE,4.6,-,N/A,,Overcast,130,2013-02-16 15:16:00
6:36 AM,37.4,33.8,87,29.97,7.0,ESE,4.6,-,N/A,,Overcast,110,2013-02-16 15:36:00
6:56 AM,37.4,33.8,87,29.97,5.0,SE,6.9,-,N/A,,Overcast,130,2013-02-16 15:56:00
7:16 AM,37.4,33.8,87,29.97,10.0,ESE,5.8,-,N/A,,Overcast,120,2013-02-16 16:16:00
7:36 AM,37.4,33.8,87,29.97,10.0,SE,5.8,-,N/A,,Overcast,130,2013-02-16 16:36:00
7:56 AM,37.4,33.8,87,29.98,10.0,SE,6.9,-,N/A,,Overcast,130,2013-02-16 16:56:00
8:16 AM,37.4,33.8,87,29.98,10.0,ESE,10.4,-,N/A,,Overcast,120,2013-02-16 17:16:00
8:36 AM,37.4,33.8,87,29.99,10.0,SE,5.8,-,N/A,,Overcast,140,2013-02-16 17:36:00
8:56 AM,37.4,33.8,87,29.99,10.0,ESE,8.1,-,N/A,,Overcast,120,2013-02-16 17:56:00
9:16 AM,39.2,33.8,81,30.00,10.0,SSW,10.4,-,N/A,,Overcast,200,2013-02-16 18:16:00
9:36 AM,39.2,33.8,81,30.00,10.0,SSW,9.2,-,N/A,,Overcast,200,2013-02-16 18:36:00
9:56 AM,39.2,33.8,81,30.01,10.0,SSW,8.1,-,N/A,,Overcast,200,2013-02-16 18:56:00
10:16 AM,39.2,33.8,81,30.02,10.0,SSW,5.8,-,N/A,,Overcast,210,2013-02-16 19:16:00
10:36 AM,39.2,30.2,70,30.03,10.0,SW,9.2,17.3,N/A,,Overcast,220,2013-02-16 19:36:00
10:56 AM,39.2,30.2,70,30.05,10.0,SW,9.2,-,N/A,,Overcast,230,2013-02-16 19:56:00
11:16 AM,39.2,30.2,70,30.06,10.0,SW,17.3,21.9,N/A,,Overcast,230,2013-02-16 20:16:00
11:36 AM,39.2,30.2,70,30.06,10.0,SSW,13.8,20.7,N/A,,Overcast,210,2013-02-16 20:36:00
11:56 AM,39.2,28.4,65,30.06,10.0,SW,12.7,20.7,N/A,,Scattered Clouds,220,2013-02-16 20:56:00
12:16 PM,39.2,30.2,70,30.07,10.0,SSW,10.4,20.7,N/A,,Scattered Clouds,210,2013-02-16 21:16:00
12:36 PM,39.2,28.4,65,30.08,10.0,SSW,10.4,16.1,N/A,,Overcast,210,2013-02-16 21:36:00
12:56 PM,39.2,26.6,61,30.09,10.0,SW,12.7,18.4,N/A,,Overcast,220,2013-02-16 21:56:00
1:16 PM,39.2,26.6,61,30.10,10.0,SSW,6.9,-,N/A,,Overcast,210,2013-02-16 22:16:00
1:36 PM,39.2,26.6,61,30.10,10.0,WSW,11.5,19.6,N/A,,Overcast,240,2013-02-16 22:36:00
1:56 PM,39.2,24.8,56,30.11,10.0,SSW,6.9,-,N/A,,Overcast,200,2013-02-16 22:56:00
2:16 PM,39.2,24.8,56,30.11,10.0,SSW,9.2,-,N/A,,Overcast,200,2013-02-16 23:16:00
2:36 PM,39.2,24.8,56,30.10,10.0,South,9.2,-,N/A,,Overcast,180,2013-02-16 23:36:00
2:56 PM,39.2,26.6,61,30.11,10.0,SSW,9.2,-,N/A,,Overcast,200,2013-02-16 23:56:00
3:16 PM,39.2,24.8,56,30.11,10.0,SW,6.9,-,N/A,,Overcast,220,2013-02-17 00:16:00
3:36 PM,39.2,24.8,56,30.11,10.0,SSW,10.4,-,N/A,,Overcast,210,2013-02-17 00:36:00
3:56 PM,39.2,24.8,56,30.11,10.0,SW,10.4,-,N/A,,Overcast,220,2013-02-17 00:56:00
4:16 PM,39.2,24.8,56,30.10,10.0,SSW,9.2,-,N/A,,Overcast,210,2013-02-17 01:16:00
4:36 PM,-9999,-9999,N/A,30.10,10.0,SSW,11.5,-,N/A,,Overcast,210,2013-02-17 01:36:00
4:56 PM,-9999,-9999,N/A,30.09,10.0,SW,9.2,-,N/A,,Overcast,220,2013-02-17 01:56:00
5:16 PM,-9999,-9999,N/A,30.10,10.0,SW,9.2,-,N/A,,Overcast,230,2013-02-17 02:16:00
5:36 PM,37.4,24.8,60,30.11,10.0,SW,9.2,-,N/A,,Overcast,220,2013-02-17 02:36:00
5:56 PM,37.4,24.8,60,30.11,10.0,SW,9.2,-,N/A,,Scattered Clouds,230,2013-02-17 02:56:00
6:16 PM,37.4,24.8,60,30.11,10.0,SSW,6.9,-,N/A,,Scattered Clouds,210,2013-02-17 03:16:00
6:36 PM,37.4,24.8,60,30.11,10.0,SSW,5.8,-,N/A,,Mostly Cloudy,200,2013-02-17 03:36:00
6:56 PM,37.4,24.8,60,30.11,10.0,SSW,4.6,-,N/A,,Mostly Cloudy,210,2013-02-17 03:56:00
7:16 PM,37.4,26.6,65,30.12,10.0,South,4.6,-,N/A,,Mostly Cloudy,170,2013-02-17 04:16:00
7:36 PM,37.4,26.6,65,30.12,10.0,SE,4.6,-,N/A,,Overcast,140,2013-02-17 04:36:00
7:56 PM,37.4,26.6,65,30.13,10.0,South,5.8,-,N/A,,Overcast,180,2013-02-17 04:56:00
8:16 PM,37.4,26.6,65,30.13,7.0,South,4.6,-,N/A,,Overcast,170,2013-02-17 05:16:00
8:36 PM,37.4,26.6,65,30.13,10.0,South,6.9,-,N/A,,Overcast,190,2013-02-17 05:36:00
8:56 PM,37.4,24.8,60,30.13,10.0,South,4.6,-,N/A,,Overcast,180,2013-02-17 05:56:00
9:16 PM,37.4,24.8,60,30.13,10.0,South,4.6,-,N/A,,Overcast,170,2013-02-17 06:16:00
9:36 PM,37.4,26.6,65,30.12,10.0,SSE,6.9,-,N/A,,Overcast,150,2013-02-17 06:36:00
9:56 PM,35.6,26.6,70,30.13,10.0,SE,6.9,-,N/A,,Overcast,130,2013-02-17 06:56:00
10:16 PM,35.6,26.6,70,30.12,10.0,SE,8.1,-,N/A,,Overcast,130,2013-02-17 07:16:00
10:36 PM,35.6,26.6,70,30.12,10.0,SE,6.9,-,N/A,,Overcast,130,2013-02-17 07:36:00
10:56 PM,35.6,26.6,70,30.13,10.0,SE,4.6,-,N/A,,Overcast,140,2013-02-17 07:56:00
11:16 PM,35.6,24.8,65,30.13,10.0,SSE,4.6,-,N/A,,Overcast,160,2013-02-17 08:16:00
11:36 PM,37.4,24.8,60,30.13,10.0,South,3.5,-,N/A,,Overcast,170,2013-02-17 08:36:00
11:56 PM,35.6,23.0,60,30.13,10.0,SSE,4.6,-,N/A,,Overcast,160,2013-02-17 08:56:00